Estación Meteorológica Peña el Pijo (Robertgarden) [ 02/03/23 02:42:29 CET ]

Fecha Hora Presion(HPa) Temp (°C) Humedad % Rocio (°C) Viento ( m/s) Direccion Lluvia 1Hora(mm) Lluvia 24H(mm) LLuvia Total(mm)
2010-May-09 01:01:14 1002.800 8.5 78 4.9         112.92
2010-May-09 02:01:15 1002.300 7.9 81 4.9         112.92
2010-May-09 03:03:24 1002.000 7.4 83 4.7         112.92
2010-May-09 04:01:16 1001.700 7.6 85 5.2         112.92
2010-May-09 05:01:13 1001.200 8.9 82 6.0         112.92
2010-May-09 06:01:13 1000.700 12.3 71 7.2         112.92
2010-May-09 07:01:13 1000.600 13.4 66 7.2 1.4 SW     112.92
2010-May-09 08:01:12 1000.700 14.3 62 7.1         112.92
2010-May-09 09:01:12 1000.800 14.3 63 7.3         112.92
2010-May-09 10:01:15 1001.100 18.9 48 7.6         112.92
2010-May-09 11:01:12 1001.400 19.6 45 7.3         112.92
2010-May-09 12:01:14 1001.400 22.7 39 8.0         112.92
2010-May-09 13:01:14 1001.700 21.9 40 7.7 0.3 S     112.92
2010-May-09 14:01:14 1001.600 19.8 45 7.5         112.92
2010-May-09 15:01:15 1002.900 16.1 55 7.0         112.92
2010-May-09 16:01:14 1002.700 15.6 54 6.3         112.92
2010-May-09 17:01:14 1002.200 17.1 52 7.1         112.92
2010-May-09 18:01:13 1002.100 16.8 49 6.0         112.92
2010-May-09 19:01:13 1001.900 16.9 49 6.1         112.92
2010-May-09 20:01:14 1001.700 15.9 49 5.2         112.92
2010-May-09 21:01:19 1002.100 13.9 56 5.3         112.92
2010-May-09 22:01:14 1003.000 12.7 63 5.8         112.92
2010-May-09 23:01:18 1003.600 12.4 64 5.8         112.92

Temperatura Máxima:22°    Temperatura Mínima:
Presión Máxima:1003.600 Hpa    Presión Mínima:1000.600 Hpa


Volver